This is the latest recevied weather packets stored in our database for station/object OK1FRN-6. If no packets are shown the sender has not sent any weather packets the latest 10 day(s).
| Time | Temp. | Humidity | Pressure | Rain* | Wind** | Luminosity | Snow |
|---|---|---|---|---|---|---|---|
| 1777775055 | 4.44° C | 62% | 1018.5 hPa | - | - | - | - |
| 1777774444 | 4.44° C | 62% | 1018.5 hPa | - | - | - | - |
| 1777774138 | 4.44° C | 61% | 1018.5 hPa | - | - | - | - |
| 1777773527 | 4.44° C | 61% | 1018.6 hPa | - | - | - | - |
| 1777773222 | 5° C | 61% | 1018.6 hPa | - | - | - | - |
| 1777772611 | 5° C | 60% | 1018.5 hPa | - | - | - | - |
| 1777767417 | 6.67° C | 55% | 1018.9 hPa | - | - | - | - |
| 1777767112 | 6.67° C | 55% | 1018.9 hPa | - | - | - | - |
| 1777766195 | 7.22° C | 54% | 1019.1 hPa | - | - | - | - |
| 1777765278 | 7.22° C | 54% | 1019.1 hPa | - | - | - | - |
| 1777764361 | 7.78° C | 53% | 1019.2 hPa | - | - | - | - |
| 1777764055 | 7.78° C | 53% | 1019.2 hPa | - | - | - | - |
| 1777761915 | 8.89° C | 51% | 1019.2 hPa | - | - | - | - |
| 1777761610 | 8.89° C | 50% | 1019.3 hPa | - | - | - | - |
| 1777761304 | 8.89° C | 50% | 1019.4 hPa | - | - | - | - |
| 1777760387 | 9.44° C | 49% | 1019.4 hPa | - | - | - | - |
| 1777760081 | 9.44° C | 48% | 1019.4 hPa | - | - | - | - |
| 1777759775 | 9.44° C | 48% | 1019.4 hPa | - | - | - | - |
| 1777759469 | 9.44° C | 48% | 1019.4 hPa | - | - | - | - |
| 1777759163 | 10° C | 47% | 1019.4 hPa | - | - | - | - |
| 1777758858 | 10° C | 47% | 1019.4 hPa | - | - | - | - |
| 1777758552 | 10° C | 47% | 1019.4 hPa | - | - | - | - |
| 1777758246 | 10° C | 46% | 1019.3 hPa | - | - | - | - |
| 1777757940 | 10.56° C | 46% | 1019.3 hPa | - | - | - | - |
| 1777757634 | 10.56° C | 45% | 1019.4 hPa | - | - | - | - |
* Rain since midnight (hover to see other rain measurements)
** Current wind speed in m/s (hover to see current wind gust speed)